sensor_id;sensor_type;location;lat;lon;timestamp;temperature;humidity
15143;DHT22;7672;50.834;6.286;2023-08-30T00:01:39;18.40;99.90
15143;DHT22;7672;50.834;6.286;2023-08-30T00:04:06;18.90;99.90
15143;DHT22;7672;50.834;6.286;2023-08-30T00:06:34;18.40;99.90
15143;DHT22;7672;50.834;6.286;2023-08-30T00:09:01;18.90;99.90
15143;DHT22;7672;50.834;6.286;2023-08-30T00:11:28;18.30;99.90
15143;DHT22;7672;50.834;6.286;2023-08-30T00:14:03;18.60;99.90
15143;DHT22;7672;50.834;6.286;2023-08-30T00:16:34;18.20;99.90
15143;DHT22;7672;50.834;6.286;2023-08-30T00:19:01;18.20;99.90
15143;DHT22;7672;50.834;6.286;2023-08-30T00:21:28;18.20;99.90
15143;DHT22;7672;50.834;6.286;2023-08-30T00:23:55;18.40;99.90
15143;DHT22;7672;50.834;6.286;2023-08-30T00:26:22;18.10;99.90
15143;DHT22;7672;50.834;6.286;2023-08-30T00:28:50;18.40;99.90
15143;DHT22;7672;50.834;6.286;2023-08-30T00:31:17;18.00;99.90
15143;DHT22;7672;50.834;6.286;2023-08-30T00:33:44;18.00;99.90
15143;DHT22;7672;50.834;6.286;2023-08-30T00:36:12;18.50;99.90
15143;DHT22;7672;50.834;6.286;2023-08-30T00:38:39;17.90;99.90
15143;DHT22;7672;50.834;6.286;2023-08-30T00:41:06;18.20;99.90
15143;DHT22;7672;50.834;6.286;2023-08-30T00:43:33;17.90;99.90
15143;DHT22;7672;50.834;6.286;2023-08-30T00:46:00;17.80;99.90
15143;DHT22;7672;50.834;6.286;2023-08-30T00:48:28;17.80;99.90
15143;DHT22;7672;50.834;6.286;2023-08-30T00:50:55;17.70;99.90
15143;DHT22;7672;50.834;6.286;2023-08-30T00:53:22;17.70;99.90
15143;DHT22;7672;50.834;6.286;2023-08-30T00:55:50;17.60;99.90
15143;DHT22;7672;50.834;6.286;2023-08-30T00:58:17;17.60;99.90
15143;DHT22;7672;50.834;6.286;2023-08-30T01:00:44;17.50;99.90
15143;DHT22;7672;50.834;6.286;2023-08-30T01:03:12;17.50;99.90
15143;DHT22;7672;50.834;6.286;2023-08-30T01:05:40;17.40;99.90
15143;DHT22;7672;50.834;6.286;2023-08-30T01:08:07;17.40;99.90
15143;DHT22;7672;50.834;6.286;2023-08-30T01:13:56;17.30;99.90
15143;DHT22;7672;50.834;6.286;2023-08-30T01:16:27;17.30;99.90
15143;DHT22;7672;50.834;6.286;2023-08-30T01:18:56;17.20;99.90
15143;DHT22;7672;50.834;6.286;2023-08-30T01:21:50;17.50;99.90
15143;DHT22;7672;50.834;6.286;2023-08-30T01:24:40;17.10;99.90
15143;DHT22;7672;50.834;6.286;2023-08-30T01:27:13;17.10;99.90
15143;DHT22;7672;50.834;6.286;2023-08-30T01:29:44;17.10;99.90
15143;DHT22;7672;50.834;6.286;2023-08-30T01:32:13;17.60;99.90
15143;DHT22;7672;50.834;6.286;2023-08-30T01:34:42;17.00;99.90
15143;DHT22;7672;50.834;6.286;2023-08-30T01:37:12;16.90;99.90
15143;DHT22;7672;50.834;6.286;2023-08-30T01:39:42;16.90;99.90
15143;DHT22;7672;50.834;6.286;2023-08-30T01:42:10;16.90;99.90
15143;DHT22;7672;50.834;6.286;2023-08-30T01:44:40;16.90;99.90
15143;DHT22;7672;50.834;6.286;2023-08-30T01:47:11;16.80;99.90
15143;DHT22;7672;50.834;6.286;2023-08-30T01:49:39;16.80;99.90
15143;DHT22;7672;50.834;6.286;2023-08-30T01:52:07;16.80;99.90
15143;DHT22;7672;50.834;6.286;2023-08-30T01:54:37;16.80;99.90
15143;DHT22;7672;50.834;6.286;2023-08-30T01:57:05;16.80;99.90
15143;DHT22;7672;50.834;6.286;2023-08-30T01:59:33;16.70;99.90
15143;DHT22;7672;50.834;6.286;2023-08-30T02:02:01;16.70;99.90
15143;DHT22;7672;50.834;6.286;2023-08-30T02:04:30;16.70;99.90
15143;DHT22;7672;50.834;6.286;2023-08-30T02:07:02;16.70;99.90
15143;DHT22;7672;50.834;6.286;2023-08-30T02:12:46;16.60;99.90
15143;DHT22;7672;50.834;6.286;2023-08-30T02:15:16;16.60;99.90
15143;DHT22;7672;50.834;6.286;2023-08-30T02:17:45;16.60;99.90
15143;DHT22;7672;50.834;6.286;2023-08-30T02:20:15;16.60;99.90
15143;DHT22;7672;50.834;6.286;2023-08-30T02:22:42;16.50;99.90
15143;DHT22;7672;50.834;6.286;2023-08-30T02:25:10;16.50;99.90
15143;DHT22;7672;50.834;6.286;2023-08-30T02:27:37;16.50;99.90
15143;DHT22;7672;50.834;6.286;2023-08-30T02:30:04;16.40;99.90
15143;DHT22;7672;50.834;6.286;2023-08-30T02:32:32;16.40;99.90
15143;DHT22;7672;50.834;6.286;2023-08-30T02:35:02;16.40;99.90
15143;DHT22;7672;50.834;6.286;2023-08-30T02:37:29;16.30;99.90
15143;DHT22;7672;50.834;6.286;2023-08-30T02:39:56;16.30;99.90
15143;DHT22;7672;50.834;6.286;2023-08-30T02:42:23;16.30;99.90
15143;DHT22;7672;50.834;6.286;2023-08-30T02:44:53;16.30;99.90
15143;DHT22;7672;50.834;6.286;2023-08-30T02:47:20;16.30;99.90
15143;DHT22;7672;50.834;6.286;2023-08-30T02:49:47;16.30;99.90
15143;DHT22;7672;50.834;6.286;2023-08-30T02:52:14;16.20;99.90
15143;DHT22;7672;50.834;6.286;2023-08-30T02:54:41;16.20;99.90
15143;DHT22;7672;50.834;6.286;2023-08-30T02:57:08;16.20;99.90
15143;DHT22;7672;50.834;6.286;2023-08-30T02:59:35;16.20;99.90
15143;DHT22;7672;50.834;6.286;2023-08-30T03:02:05;16.00;99.90
15143;DHT22;7672;50.834;6.286;2023-08-30T03:04:33;16.10;99.90
15143;DHT22;7672;50.834;6.286;2023-08-30T03:07:02;16.10;99.90
15143;DHT22;7672;50.834;6.286;2023-08-30T03:09:29;16.10;99.90
15143;DHT22;7672;50.834;6.286;2023-08-30T03:11:56;16.10;99.90
15143;DHT22;7672;50.834;6.286;2023-08-30T03:14:23;15.90;99.90
15143;DHT22;7672;50.834;6.286;2023-08-30T03:16:51;16.10;99.90
15143;DHT22;7672;50.834;6.286;2023-08-30T03:19:18;16.00;99.90
15143;DHT22;7672;50.834;6.286;2023-08-30T03:21:45;16.00;99.90
15143;DHT22;7672;50.834;6.286;2023-08-30T03:24:12;15.90;99.90
15143;DHT22;7672;50.834;6.286;2023-08-30T03:26:42;15.90;99.90
15143;DHT22;7672;50.834;6.286;2023-08-30T03:29:10;15.90;99.90
15143;DHT22;7672;50.834;6.286;2023-08-30T03:31:37;15.90;99.90
15143;DHT22;7672;50.834;6.286;2023-08-30T03:34:04;15.80;99.90
15143;DHT22;7672;50.834;6.286;2023-08-30T03:36:32;15.90;99.90
15143;DHT22;7672;50.834;6.286;2023-08-30T03:38:59;15.90;99.90
15143;DHT22;7672;50.834;6.286;2023-08-30T03:41:26;16.00;99.90
15143;DHT22;7672;50.834;6.286;2023-08-30T03:43:56;16.00;99.90
15143;DHT22;7672;50.834;6.286;2023-08-30T03:46:23;15.90;99.90
15143;DHT22;7672;50.834;6.286;2023-08-30T03:48:50;15.90;99.90
15143;DHT22;7672;50.834;6.286;2023-08-30T03:51:18;16.00;99.90
15143;DHT22;7672;50.834;6.286;2023-08-30T03:53:48;16.00;99.90
15143;DHT22;7672;50.834;6.286;2023-08-30T03:56:15;16.20;99.90
15143;DHT22;7672;50.834;6.286;2023-08-30T03:58:42;16.00;99.90
15143;DHT22;7672;50.834;6.286;2023-08-30T04:01:11;16.20;99.90
15143;DHT22;7672;50.834;6.286;2023-08-30T04:03:38;16.40;99.90
15143;DHT22;7672;50.834;6.286;2023-08-30T04:06:07;16.10;99.90
15143;DHT22;7672;50.834;6.286;2023-08-30T04:08:34;16.20;99.90
15143;DHT22;7672;50.834;6.286;2023-08-30T04:11:02;16.20;99.90
15143;DHT22;7672;50.834;6.286;2023-08-30T04:13:29;16.20;99.90
15143;DHT22;7672;50.834;6.286;2023-08-30T04:15:56;16.20;99.90
15143;DHT22;7672;50.834;6.286;2023-08-30T04:18:25;16.20;99.90
15143;DHT22;7672;50.834;6.286;2023-08-30T04:20:52;16.30;99.90
15143;DHT22;7672;50.834;6.286;2023-08-30T04:23:19;16.30;99.90
15143;DHT22;7672;50.834;6.286;2023-08-30T04:25:46;16.40;99.90
15143;DHT22;7672;50.834;6.286;2023-08-30T04:28:13;16.40;99.90
15143;DHT22;7672;50.834;6.286;2023-08-30T04:30:41;16.40;99.90
15143;DHT22;7672;50.834;6.286;2023-08-30T04:33:08;16.50;99.90
15143;DHT22;7672;50.834;6.286;2023-08-30T04:35:35;16.50;99.90
15143;DHT22;7672;50.834;6.286;2023-08-30T04:38:02;16.50;99.90
15143;DHT22;7672;50.834;6.286;2023-08-30T04:40:31;16.60;99.90
15143;DHT22;7672;50.834;6.286;2023-08-30T04:42:59;17.00;99.90
15143;DHT22;7672;50.834;6.286;2023-08-30T04:45:27;16.70;99.90
15143;DHT22;7672;50.834;6.286;2023-08-30T04:47:54;16.70;99.90
15143;DHT22;7672;50.834;6.286;2023-08-30T04:50:23;16.70;99.90
15143;DHT22;7672;50.834;6.286;2023-08-30T04:52:51;16.70;99.90
15143;DHT22;7672;50.834;6.286;2023-08-30T04:55:18;16.80;99.90
15143;DHT22;7672;50.834;6.286;2023-08-30T04:57:45;16.80;99.90
15143;DHT22;7672;50.834;6.286;2023-08-30T05:00:16;16.80;99.90
15143;DHT22;7672;50.834;6.286;2023-08-30T05:02:44;16.90;99.90
15143;DHT22;7672;50.834;6.286;2023-08-30T05:05:14;17.40;99.90
15143;DHT22;7672;50.834;6.286;2023-08-30T05:07:42;16.90;99.90
15143;DHT22;7672;50.834;6.286;2023-08-30T05:10:09;17.00;99.90
15143;DHT22;7672;50.834;6.286;2023-08-30T05:12:37;17.00;99.90
15143;DHT22;7672;50.834;6.286;2023-08-30T05:15:05;17.00;99.90
15143;DHT22;7672;50.834;6.286;2023-08-30T05:17:32;17.10;99.90
15143;DHT22;7672;50.834;6.286;2023-08-30T05:19:59;17.10;99.90
15143;DHT22;7672;50.834;6.286;2023-08-30T05:22:27;17.10;99.90
15143;DHT22;7672;50.834;6.286;2023-08-30T05:24:54;17.10;99.90
15143;DHT22;7672;50.834;6.286;2023-08-30T05:27:22;17.70;99.90
15143;DHT22;7672;50.834;6.286;2023-08-30T05:29:49;17.10;99.90
15143;DHT22;7672;50.834;6.286;2023-08-30T05:32:16;17.20;99.90
15143;DHT22;7672;50.834;6.286;2023-08-30T05:35:12;17.20;99.90
15143;DHT22;7672;50.834;6.286;2023-08-30T05:37:59;17.20;99.90
15143;DHT22;7672;50.834;6.286;2023-08-30T05:40:39;17.30;99.90
15143;DHT22;7672;50.834;6.286;2023-08-30T05:43:10;17.40;99.90
15143;DHT22;7672;50.834;6.286;2023-08-30T05:45:37;17.30;99.90
15143;DHT22;7672;50.834;6.286;2023-08-30T05:48:05;17.30;99.90
15143;DHT22;7672;50.834;6.286;2023-08-30T05:50:33;17.40;99.90
15143;DHT22;7672;50.834;6.286;2023-08-30T05:53:01;17.40;99.90
15143;DHT22;7672;50.834;6.286;2023-08-30T05:55:29;17.40;99.90
15143;DHT22;7672;50.834;6.286;2023-08-30T05:57:56;17.50;99.90
15143;DHT22;7672;50.834;6.286;2023-08-30T06:00:23;17.60;99.90
15143;DHT22;7672;50.834;6.286;2023-08-30T06:02:52;17.60;99.90
15143;DHT22;7672;50.834;6.286;2023-08-30T06:05:19;17.70;99.90
15143;DHT22;7672;50.834;6.286;2023-08-30T06:07:47;17.70;99.90
15143;DHT22;7672;50.834;6.286;2023-08-30T06:10:14;17.80;99.90
15143;DHT22;7672;50.834;6.286;2023-08-30T06:12:41;18.30;99.90
15143;DHT22;7672;50.834;6.286;2023-08-30T06:15:08;18.00;99.90
15143;DHT22;7672;50.834;6.286;2023-08-30T06:17:36;18.10;99.90
15143;DHT22;7672;50.834;6.286;2023-08-30T06:20:03;18.30;99.90
15143;DHT22;7672;50.834;6.286;2023-08-30T06:22:31;18.30;99.90
15143;DHT22;7672;50.834;6.286;2023-08-30T06:24:58;18.40;99.90
15143;DHT22;7672;50.834;6.286;2023-08-30T06:27:25;18.70;99.90
15143;DHT22;7672;50.834;6.286;2023-08-30T06:29:52;18.80;99.90
15143;DHT22;7672;50.834;6.286;2023-08-30T06:32:19;18.90;99.90
15143;DHT22;7672;50.834;6.286;2023-08-30T06:34:46;19.30;99.90
15143;DHT22;7672;50.834;6.286;2023-08-30T06:37:13;19.20;99.90
15143;DHT22;7672;50.834;6.286;2023-08-30T06:39:40;19.60;99.90
15143;DHT22;7672;50.834;6.286;2023-08-30T06:42:07;19.50;99.90
15143;DHT22;7672;50.834;6.286;2023-08-30T06:44:34;19.80;99.90
15143;DHT22;7672;50.834;6.286;2023-08-30T06:47:02;19.80;99.90
15143;DHT22;7672;50.834;6.286;2023-08-30T06:49:31;19.90;99.90
15143;DHT22;7672;50.834;6.286;2023-08-30T06:51:58;20.00;99.90
15143;DHT22;7672;50.834;6.286;2023-08-30T06:54:28;20.10;99.90
15143;DHT22;7672;50.834;6.286;2023-08-30T06:56:58;20.30;99.90
15143;DHT22;7672;50.834;6.286;2023-08-30T06:59:27;20.50;99.90
15143;DHT22;7672;50.834;6.286;2023-08-30T07:01:54;20.80;99.90
15143;DHT22;7672;50.834;6.286;2023-08-30T07:04:21;21.00;99.90
15143;DHT22;7672;50.834;6.286;2023-08-30T07:06:48;21.40;99.90
15143;DHT22;7672;50.834;6.286;2023-08-30T07:09:16;21.70;99.90
15143;DHT22;7672;50.834;6.286;2023-08-30T07:11:43;21.90;99.90
15143;DHT22;7672;50.834;6.286;2023-08-30T07:14:12;22.20;99.90
15143;DHT22;7672;50.834;6.286;2023-08-30T07:16:41;22.30;99.90
15143;DHT22;7672;50.834;6.286;2023-08-30T07:19:08;22.40;99.90
15143;DHT22;7672;50.834;6.286;2023-08-30T07:21:36;22.60;99.90
15143;DHT22;7672;50.834;6.286;2023-08-30T07:24:06;22.60;99.90
15143;DHT22;7672;50.834;6.286;2023-08-30T07:26:34;22.70;99.90
15143;DHT22;7672;50.834;6.286;2023-08-30T07:29:03;22.80;99.90
15143;DHT22;7672;50.834;6.286;2023-08-30T07:31:33;23.00;99.90
15143;DHT22;7672;50.834;6.286;2023-08-30T07:34:00;23.20;99.90
15143;DHT22;7672;50.834;6.286;2023-08-30T07:36:28;23.30;99.90
15143;DHT22;7672;50.834;6.286;2023-08-30T07:39:13;23.50;99.90
15143;DHT22;7672;50.834;6.286;2023-08-30T07:41:40;23.80;99.90
15143;DHT22;7672;50.834;6.286;2023-08-30T07:44:07;24.00;99.90
15143;DHT22;7672;50.834;6.286;2023-08-30T07:46:34;24.10;99.90
15143;DHT22;7672;50.834;6.286;2023-08-30T07:49:02;24.30;99.90
15143;DHT22;7672;50.834;6.286;2023-08-30T07:51:29;24.30;99.90
15143;DHT22;7672;50.834;6.286;2023-08-30T07:53:56;24.40;99.90
15143;DHT22;7672;50.834;6.286;2023-08-30T07:56:24;24.40;99.90
15143;DHT22;7672;50.834;6.286;2023-08-30T07:58:51;24.50;99.90
15143;DHT22;7672;50.834;6.286;2023-08-30T08:01:18;24.50;99.90
15143;DHT22;7672;50.834;6.286;2023-08-30T08:03:45;24.30;99.90
15143;DHT22;7672;50.834;6.286;2023-08-30T08:06:32;24.30;99.90
15143;DHT22;7672;50.834;6.286;2023-08-30T08:09:01;24.20;99.90
15143;DHT22;7672;50.834;6.286;2023-08-30T08:11:28;24.30;99.90
15143;DHT22;7672;50.834;6.286;2023-08-30T08:13:56;24.10;99.90
15143;DHT22;7672;50.834;6.286;2023-08-30T08:16:23;24.10;99.90
15143;DHT22;7672;50.834;6.286;2023-08-30T08:18:50;23.90;99.90
15143;DHT22;7672;50.834;6.286;2023-08-30T08:21:18;23.90;99.90
15143;DHT22;7672;50.834;6.286;2023-08-30T08:23:45;23.80;99.90
15143;DHT22;7672;50.834;6.286;2023-08-30T08:26:16;23.70;99.90
15143;DHT22;7672;50.834;6.286;2023-08-30T08:28:43;23.60;99.90
15143;DHT22;7672;50.834;6.286;2023-08-30T08:31:11;23.50;99.90
15143;DHT22;7672;50.834;6.286;2023-08-30T08:33:38;23.50;99.90
15143;DHT22;7672;50.834;6.286;2023-08-30T08:36:05;23.40;99.90
15143;DHT22;7672;50.834;6.286;2023-08-30T08:38:32;23.40;99.90
15143;DHT22;7672;50.834;6.286;2023-08-30T08:41:02;23.30;99.90
15143;DHT22;7672;50.834;6.286;2023-08-30T08:43:35;23.30;99.90
15143;DHT22;7672;50.834;6.286;2023-08-30T08:46:04;23.20;99.90
15143;DHT22;7672;50.834;6.286;2023-08-30T08:48:40;23.30;99.90
15143;DHT22;7672;50.834;6.286;2023-08-30T08:51:09;23.10;99.90
15143;DHT22;7672;50.834;6.286;2023-08-30T08:53:37;23.30;99.90
15143;DHT22;7672;50.834;6.286;2023-08-30T08:56:06;23.30;99.90
15143;DHT22;7672;50.834;6.286;2023-08-30T08:58:36;23.30;99.90
15143;DHT22;7672;50.834;6.286;2023-08-30T09:01:04;23.40;99.90
15143;DHT22;7672;50.834;6.286;2023-08-30T09:03:40;23.50;99.90
15143;DHT22;7672;50.834;6.286;2023-08-30T09:06:07;23.60;99.90
15143;DHT22;7672;50.834;6.286;2023-08-30T09:08:35;23.80;99.90
15143;DHT22;7672;50.834;6.286;2023-08-30T09:11:02;24.00;99.90
15143;DHT22;7672;50.834;6.286;2023-08-30T09:13:29;24.30;99.90
15143;DHT22;7672;50.834;6.286;2023-08-30T09:15:57;24.60;99.90
15143;DHT22;7672;50.834;6.286;2023-08-30T09:18:25;24.90;99.90
15143;DHT22;7672;50.834;6.286;2023-08-30T09:21:10;25.10;99.90
15143;DHT22;7672;50.834;6.286;2023-08-30T09:23:38;25.30;99.90
15143;DHT22;7672;50.834;6.286;2023-08-30T09:26:05;25.50;99.90
15143;DHT22;7672;50.834;6.286;2023-08-30T09:28:42;25.70;99.90
15143;DHT22;7672;50.834;6.286;2023-08-30T09:31:17;25.80;99.90
15143;DHT22;7672;50.834;6.286;2023-08-30T09:33:58;26.10;99.90
15143;DHT22;7672;50.834;6.286;2023-08-30T09:36:25;26.40;99.90
15143;DHT22;7672;50.834;6.286;2023-08-30T09:38:52;26.70;99.90
15143;DHT22;7672;50.834;6.286;2023-08-30T09:41:20;27.00;99.90
15143;DHT22;7672;50.834;6.286;2023-08-30T09:43:47;27.20;99.90
15143;DHT22;7672;50.834;6.286;2023-08-30T09:46:27;27.30;99.90
15143;DHT22;7672;50.834;6.286;2023-08-30T09:49:14;27.30;99.90
15143;DHT22;7672;50.834;6.286;2023-08-30T09:51:46;27.40;99.90
15143;DHT22;7672;50.834;6.286;2023-08-30T09:54:16;27.40;99.90
15143;DHT22;7672;50.834;6.286;2023-08-30T09:57:04;27.40;99.90
15143;DHT22;7672;50.834;6.286;2023-08-30T09:59:33;27.30;99.90
15143;DHT22;7672;50.834;6.286;2023-08-30T10:02:00;27.20;99.90
15143;DHT22;7672;50.834;6.286;2023-08-30T10:04:29;27.10;99.90
15143;DHT22;7672;50.834;6.286;2023-08-30T10:06:58;26.60;99.90
15143;DHT22;7672;50.834;6.286;2023-08-30T10:09:30;26.70;99.90
15143;DHT22;7672;50.834;6.286;2023-08-30T10:11:58;26.60;99.90
15143;DHT22;7672;50.834;6.286;2023-08-30T10:14:28;26.40;99.90
15143;DHT22;7672;50.834;6.286;2023-08-30T10:17:02;26.20;99.90
15143;DHT22;7672;50.834;6.286;2023-08-30T10:19:31;25.90;99.90
15143;DHT22;7672;50.834;6.286;2023-08-30T10:22:03;25.70;99.90
15143;DHT22;7672;50.834;6.286;2023-08-30T10:24:43;25.40;99.90
15143;DHT22;7672;50.834;6.286;2023-08-30T10:27:34;25.20;99.90
15143;DHT22;7672;50.834;6.286;2023-08-30T10:30:05;24.80;99.90
15143;DHT22;7672;50.834;6.286;2023-08-30T10:32:39;24.60;99.90
15143;DHT22;7672;50.834;6.286;2023-08-30T10:35:14;24.30;99.90
15143;DHT22;7672;50.834;6.286;2023-08-30T10:37:53;24.00;99.90
15143;DHT22;7672;50.834;6.286;2023-08-30T10:40:22;23.80;99.90
15143;DHT22;7672;50.834;6.286;2023-08-30T10:42:59;23.50;99.90
15143;DHT22;7672;50.834;6.286;2023-08-30T10:45:30;23.30;99.90
15143;DHT22;7672;50.834;6.286;2023-08-30T10:47:59;23.10;99.90
15143;DHT22;7672;50.834;6.286;2023-08-30T10:50:31;22.90;99.90
15143;DHT22;7672;50.834;6.286;2023-08-30T10:53:00;22.70;99.90
15143;DHT22;7672;50.834;6.286;2023-08-30T10:55:27;22.50;99.90
15143;DHT22;7672;50.834;6.286;2023-08-30T10:58:02;22.30;99.90
15143;DHT22;7672;50.834;6.286;2023-08-30T11:00:31;22.20;99.90
15143;DHT22;7672;50.834;6.286;2023-08-30T11:02:59;22.10;99.90
15143;DHT22;7672;50.834;6.286;2023-08-30T11:05:26;21.90;99.90
15143;DHT22;7672;50.834;6.286;2023-08-30T11:07:55;21.90;99.90
15143;DHT22;7672;50.834;6.286;2023-08-30T11:10:22;21.80;99.90
15143;DHT22;7672;50.834;6.286;2023-08-30T11:12:49;21.70;99.90
15143;DHT22;7672;50.834;6.286;2023-08-30T11:15:17;21.60;99.90
15143;DHT22;7672;50.834;6.286;2023-08-30T11:17:45;21.60;99.90
15143;DHT22;7672;50.834;6.286;2023-08-30T11:20:14;21.50;99.90
15143;DHT22;7672;50.834;6.286;2023-08-30T11:22:48;21.20;99.90
15143;DHT22;7672;50.834;6.286;2023-08-30T11:25:16;21.40;99.90
15143;DHT22;7672;50.834;6.286;2023-08-30T11:27:44;21.30;99.90
15143;DHT22;7672;50.834;6.286;2023-08-30T11:30:11;21.40;99.90
15143;DHT22;7672;50.834;6.286;2023-08-30T11:32:41;21.30;99.90
15143;DHT22;7672;50.834;6.286;2023-08-30T11:35:11;21.30;99.90
15143;DHT22;7672;50.834;6.286;2023-08-30T11:37:40;21.30;99.90
15143;DHT22;7672;50.834;6.286;2023-08-30T11:40:11;21.30;99.90
15143;DHT22;7672;50.834;6.286;2023-08-30T11:42:39;21.20;99.90
15143;DHT22;7672;50.834;6.286;2023-08-30T11:45:07;21.20;99.90
15143;DHT22;7672;50.834;6.286;2023-08-30T11:47:34;21.20;99.90
15143;DHT22;7672;50.834;6.286;2023-08-30T11:50:02;21.20;99.90
15143;DHT22;7672;50.834;6.286;2023-08-30T11:52:32;21.10;99.90
15143;DHT22;7672;50.834;6.286;2023-08-30T11:55:00;21.10;99.90
15143;DHT22;7672;50.834;6.286;2023-08-30T11:57:27;21.00;99.90
15143;DHT22;7672;50.834;6.286;2023-08-30T11:59:54;21.00;99.90
15143;DHT22;7672;50.834;6.286;2023-08-30T12:02:21;21.00;99.90
15143;DHT22;7672;50.834;6.286;2023-08-30T12:04:50;20.90;99.90
15143;DHT22;7672;50.834;6.286;2023-08-30T12:07:25;20.90;99.90
15143;DHT22;7672;50.834;6.286;2023-08-30T12:10:04;20.80;99.90
15143;DHT22;7672;50.834;6.286;2023-08-30T12:12:32;20.70;99.90
15143;DHT22;7672;50.834;6.286;2023-08-30T12:14:59;20.70;99.90
15143;DHT22;7672;50.834;6.286;2023-08-30T12:17:26;20.60;99.90
15143;DHT22;7672;50.834;6.286;2023-08-30T12:19:57;20.60;99.90
15143;DHT22;7672;50.834;6.286;2023-08-30T12:22:38;20.60;99.90
15143;DHT22;7672;50.834;6.286;2023-08-30T12:25:19;20.40;99.90
15143;DHT22;7672;50.834;6.286;2023-08-30T12:27:47;20.40;99.90
15143;DHT22;7672;50.834;6.286;2023-08-30T12:30:16;20.30;99.90
15143;DHT22;7672;50.834;6.286;2023-08-30T12:32:44;20.40;99.90
15143;DHT22;7672;50.834;6.286;2023-08-30T12:35:12;20.40;99.90
15143;DHT22;7672;50.834;6.286;2023-08-30T12:37:39;20.50;99.90
15143;DHT22;7672;50.834;6.286;2023-08-30T12:40:07;20.50;99.90
15143;DHT22;7672;50.834;6.286;2023-08-30T12:42:34;20.50;99.90
15143;DHT22;7672;50.834;6.286;2023-08-30T12:45:01;20.50;99.90
15143;DHT22;7672;50.834;6.286;2023-08-30T12:47:30;20.50;99.90
15143;DHT22;7672;50.834;6.286;2023-08-30T12:49:57;20.50;99.90
15143;DHT22;7672;50.834;6.286;2023-08-30T12:52:24;20.50;99.90
15143;DHT22;7672;50.834;6.286;2023-08-30T12:54:51;20.50;99.90
15143;DHT22;7672;50.834;6.286;2023-08-30T12:57:20;20.60;99.90
15143;DHT22;7672;50.834;6.286;2023-08-30T12:59:47;20.60;99.90
15143;DHT22;7672;50.834;6.286;2023-08-30T13:02:14;20.60;99.90
15143;DHT22;7672;50.834;6.286;2023-08-30T13:04:42;20.60;99.90
15143;DHT22;7672;50.834;6.286;2023-08-30T13:07:09;20.60;99.90
15143;DHT22;7672;50.834;6.286;2023-08-30T13:09:36;20.60;99.90
15143;DHT22;7672;50.834;6.286;2023-08-30T13:12:03;20.70;99.90
15143;DHT22;7672;50.834;6.286;2023-08-30T13:14:31;20.70;99.90
15143;DHT22;7672;50.834;6.286;2023-08-30T13:16:58;20.80;99.90
15143;DHT22;7672;50.834;6.286;2023-08-30T13:19:25;20.70;99.90
15143;DHT22;7672;50.834;6.286;2023-08-30T13:21:52;20.80;99.90
15143;DHT22;7672;50.834;6.286;2023-08-30T13:24:19;20.70;99.90
15143;DHT22;7672;50.834;6.286;2023-08-30T13:26:47;20.70;99.90
15143;DHT22;7672;50.834;6.286;2023-08-30T13:29:14;20.70;99.90
15143;DHT22;7672;50.834;6.286;2023-08-30T13:31:42;20.60;99.90
15143;DHT22;7672;50.834;6.286;2023-08-30T13:34:09;20.60;99.90
15143;DHT22;7672;50.834;6.286;2023-08-30T13:36:36;20.50;99.90
15143;DHT22;7672;50.834;6.286;2023-08-30T13:39:03;20.50;99.90
15143;DHT22;7672;50.834;6.286;2023-08-30T13:41:30;20.50;99.90
15143;DHT22;7672;50.834;6.286;2023-08-30T13:43:57;20.40;99.90
15143;DHT22;7672;50.834;6.286;2023-08-30T13:46:29;20.20;99.90
15143;DHT22;7672;50.834;6.286;2023-08-30T13:48:56;20.20;99.90
15143;DHT22;7672;50.834;6.286;2023-08-30T13:51:25;20.20;99.90
15143;DHT22;7672;50.834;6.286;2023-08-30T13:53:53;20.10;99.90
15143;DHT22;7672;50.834;6.286;2023-08-30T13:56:20;20.00;99.90
15143;DHT22;7672;50.834;6.286;2023-08-30T13:58:48;20.00;99.90
15143;DHT22;7672;50.834;6.286;2023-08-30T14:01:16;20.00;99.90
15143;DHT22;7672;50.834;6.286;2023-08-30T14:03:43;19.90;99.90
15143;DHT22;7672;50.834;6.286;2023-08-30T14:06:11;19.70;99.90
15143;DHT22;7672;50.834;6.286;2023-08-30T14:08:38;19.80;99.90
15143;DHT22;7672;50.834;6.286;2023-08-30T14:11:05;19.70;99.90
15143;DHT22;7672;50.834;6.286;2023-08-30T14:13:33;19.70;99.90
15143;DHT22;7672;50.834;6.286;2023-08-30T14:16:01;19.60;99.90
15143;DHT22;7672;50.834;6.286;2023-08-30T14:18:32;19.60;99.90
15143;DHT22;7672;50.834;6.286;2023-08-30T14:21:00;19.60;99.90
15143;DHT22;7672;50.834;6.286;2023-08-30T14:23:28;19.60;99.90
15143;DHT22;7672;50.834;6.286;2023-08-30T14:25:57;19.60;99.90
15143;DHT22;7672;50.834;6.286;2023-08-30T14:28:26;19.60;99.90
15143;DHT22;7672;50.834;6.286;2023-08-30T14:30:54;19.70;99.90
15143;DHT22;7672;50.834;6.286;2023-08-30T14:33:21;19.70;99.90
15143;DHT22;7672;50.834;6.286;2023-08-30T14:35:48;19.80;99.90
15143;DHT22;7672;50.834;6.286;2023-08-30T14:38:15;19.90;99.90
15143;DHT22;7672;50.834;6.286;2023-08-30T14:40:42;20.00;99.90
15143;DHT22;7672;50.834;6.286;2023-08-30T14:43:13;19.90;99.90
15143;DHT22;7672;50.834;6.286;2023-08-30T14:45:40;20.10;99.90
15143;DHT22;7672;50.834;6.286;2023-08-30T14:48:07;20.20;99.90
15143;DHT22;7672;50.834;6.286;2023-08-30T14:50:35;20.20;99.90
15143;DHT22;7672;50.834;6.286;2023-08-30T14:53:02;20.20;99.90
15143;DHT22;7672;50.834;6.286;2023-08-30T14:55:31;20.20;99.90
15143;DHT22;7672;50.834;6.286;2023-08-30T14:57:58;20.30;99.90
15143;DHT22;7672;50.834;6.286;2023-08-30T15:00:25;20.30;99.90
15143;DHT22;7672;50.834;6.286;2023-08-30T15:02:53;20.30;99.90
15143;DHT22;7672;50.834;6.286;2023-08-30T15:05:20;20.30;99.90
15143;DHT22;7672;50.834;6.286;2023-08-30T15:07:47;20.30;99.90
15143;DHT22;7672;50.834;6.286;2023-08-30T15:10:14;20.40;99.90
15143;DHT22;7672;50.834;6.286;2023-08-30T15:12:42;20.40;99.90
15143;DHT22;7672;50.834;6.286;2023-08-30T15:15:10;20.50;99.90
15143;DHT22;7672;50.834;6.286;2023-08-30T15:17:37;20.50;99.90
15143;DHT22;7672;50.834;6.286;2023-08-30T15:20:05;20.50;99.90
15143;DHT22;7672;50.834;6.286;2023-08-30T15:22:34;20.50;99.90
15143;DHT22;7672;50.834;6.286;2023-08-30T15:25:01;20.50;99.90
15143;DHT22;7672;50.834;6.286;2023-08-30T15:27:29;20.60;99.90
15143;DHT22;7672;50.834;6.286;2023-08-30T15:29:57;20.60;99.90
15143;DHT22;7672;50.834;6.286;2023-08-30T15:32:24;20.60;99.90
15143;DHT22;7672;50.834;6.286;2023-08-30T15:34:52;20.70;99.90
15143;DHT22;7672;50.834;6.286;2023-08-30T15:37:19;20.70;99.90
15143;DHT22;7672;50.834;6.286;2023-08-30T15:39:46;20.70;99.90
15143;DHT22;7672;50.834;6.286;2023-08-30T15:42:20;20.70;99.90
15143;DHT22;7672;50.834;6.286;2023-08-30T15:44:47;20.70;99.90
15143;DHT22;7672;50.834;6.286;2023-08-30T15:47:14;20.70;99.90
15143;DHT22;7672;50.834;6.286;2023-08-30T15:49:42;20.70;99.90
15143;DHT22;7672;50.834;6.286;2023-08-30T15:52:09;20.60;99.90
15143;DHT22;7672;50.834;6.286;2023-08-30T15:54:36;20.70;99.90
15143;DHT22;7672;50.834;6.286;2023-08-30T15:57:04;20.70;99.90
15143;DHT22;7672;50.834;6.286;2023-08-30T15:59:31;20.80;99.90
15143;DHT22;7672;50.834;6.286;2023-08-30T16:01:58;20.80;99.90